Time;durP1;ratioP1;P1;durP2;ratioP2;P2;SDS_P1;SDS_P2;PMS_P1;PMS_P2;Temp;Humidity;BMP_temperature;BMP_pressure;BME280_temperature;BME280_humidity;BME280_pressure;Samples;Min_cycle;Max_cycle;Signal;HPM_P1;HPM_P2
2022/10/17 00:01:29;;;;;;;16.63;3.10;;;7.30;99.90;;;;;;4995351;28;20033;-71
2022/10/17 00:03:54;;;;;;;13.63;2.50;;;7.20;99.90;;;;;;4994436;28;20031;-70
2022/10/17 00:06:20;;;;;;;15.93;3.65;;;7.10;99.90;;;;;;4994815;28;20038;-70
2022/10/17 00:08:45;;;;;;;18.95;3.28;;;7.10;99.90;;;;;;4995163;28;20034;-70
2022/10/17 00:11:20;;;;;;;12.57;2.50;;;7.10;99.90;;;;;;4995227;28;20030;-71
2022/10/17 00:13:48;;;;;;;16.67;2.95;;;7.10;99.90;;;;;;5009912;28;20033;-71
2022/10/17 00:16:21;;;;;;;11.77;3.05;;;7.10;99.90;;;;;;4994512;28;20026;-70
2022/10/17 00:18:47;;;;;;;7.25;2.00;;;7.10;99.90;;;;;;4995150;28;20537;-71
2022/10/17 00:21:17;;;;;;;14.20;3.33;;;7.10;99.90;;;;;;4994174;28;20073;-70
2022/10/17 00:23:42;;;;;;;14.45;3.35;;;7.00;99.90;;;;;;4994575;28;20101;-71
2022/10/17 00:26:08;;;;;;;10.93;1.83;;;7.10;99.90;;;;;;4994957;28;20478;-70
2022/10/17 00:28:34;;;;;;;18.60;3.10;;;7.00;99.90;;;;;;5009904;28;20018;-70
2022/10/17 00:31:03;;;;;;;17.38;3.00;;;7.00;99.90;;;;;;5009708;28;20026;-71
2022/10/17 00:33:30;;;;;;;15.57;2.92;;;7.00;99.90;;;;;;4994399;28;20027;-70
2022/10/17 00:36:23;;;;;;;17.23;4.00;;;7.00;99.90;;;;;;4994050;28;20057;-70
2022/10/17 00:38:55;;;;;;;15.00;2.90;;;7.00;99.90;;;;;;4992591;28;20026;-71
2022/10/17 00:41:25;;;;;;;23.38;3.25;;;7.00;99.90;;;;;;4994573;28;20023;-70
2022/10/17 00:44:00;;;;;;;19.75;3.55;;;7.00;99.90;;;;;;4994536;28;20488;-70
2022/10/17 00:46:29;;;;;;;11.40;2.50;;;6.90;99.90;;;;;;4994207;28;20038;-70
2022/10/17 00:48:57;;;;;;;13.55;2.78;;;6.90;99.90;;;;;;4993876;28;20375;-70
2022/10/17 00:51:37;;;;;;;16.40;3.05;;;6.90;99.90;;;;;;4994356;28;20027;-70
2022/10/17 00:54:04;;;;;;;11.20;2.90;;;6.90;99.90;;;;;;4994573;28;20034;-71
2022/10/17 00:56:30;;;;;;;16.95;3.28;;;6.80;99.90;;;;;;5009299;28;20177;-71
2022/10/17 00:58:56;;;;;;;17.48;3.63;;;6.80;99.90;;;;;;4994284;28;20097;-71
2022/10/17 01:01:22;;;;;;;15.88;2.90;;;6.90;99.90;;;;;;5009295;28;20019;-71
2022/10/17 01:03:47;;;;;;;7.70;2.83;;;6.80;99.90;;;;;;4993815;28;20026;-70
2022/10/17 01:06:13;;;;;;;12.23;2.95;;;6.80;99.90;;;;;;4994079;28;20027;-70
2022/10/17 01:08:38;;;;;;;10.05;2.83;;;6.80;99.90;;;;;;4994446;28;20065;-70
2022/10/17 01:14:39;;;;;;;20.73;3.78;;;6.80;99.90;;;;;;4994223;28;20397;-71
2022/10/17 01:17:28;;;;;;;15.43;3.67;;;6.80;99.90;;;;;;4994352;28;20030;-71
2022/10/17 01:20:23;;;;;;;19.20;2.90;;;6.80;99.90;;;;;;4994394;28;20482;-71
2022/10/17 01:23:21;;;;;;;15.25;3.35;;;6.80;99.90;;;;;;4998354;28;20030;-70
2022/10/17 01:26:01;;;;;;;19.35;3.83;;;6.70;99.90;;;;;;4981502;28;20084;-70
2022/10/17 01:28:45;;;;;;;15.20;3.00;;;6.70;99.90;;;;;;4993160;28;20130;-71
2022/10/17 01:31:14;;;;;;;12.68;2.88;;;6.60;99.90;;;;;;4981380;28;20033;-70
2022/10/17 01:33:48;;;;;;;12.52;3.42;;;6.60;99.90;;;;;;4993109;28;20038;-70
2022/10/17 01:36:23;;;;;;;11.85;3.30;;;6.60;99.90;;;;;;4982102;28;20109;-70
2022/10/17 01:38:56;;;;;;;11.80;3.55;;;6.70;99.90;;;;;;4993262;28;20069;-70
2022/10/17 01:41:50;;;;;;;16.80;3.70;;;6.70;99.90;;;;;;4995510;28;20034;-70
2022/10/17 01:44:16;;;;;;;;;;;6.70;99.90;;;;;;4994296;28;20553;-70
2022/10/17 01:46:49;;;;;;;16.35;3.88;;;6.70;99.90;;;;;;5006556;28;19957;-69
2022/10/17 01:49:17;;;;;;;20.48;4.82;;;6.70;99.90;;;;;;4993878;28;20037;-69
2022/10/17 01:51:51;;;;;;;29.88;5.25;;;6.80;99.90;;;;;;4991129;28;20085;-70
2022/10/17 01:55:01;;;;;;;19.88;4.90;;;6.90;99.90;;;;;;4984769;28;20442;-70
2022/10/17 01:57:32;;;;;;;13.65;4.63;;;7.00;99.90;;;;;;4917855;29;20039;-71
2022/10/17 02:00:01;;;;;;;18.02;4.38;;;7.10;99.90;;;;;;4984379;28;20677;-71
2022/10/17 02:02:27;;;;;;;23.60;4.55;;;7.20;99.90;;;;;;4996438;28;20545;-71
2022/10/17 02:04:55;;;;;;;22.70;4.90;;;7.20;99.90;;;;;;4983076;28;20450;-71
2022/10/17 02:07:21;;;;;;;20.70;5.47;;;7.30;99.90;;;;;;4985213;28;20034;-71
2022/10/17 02:09:47;;;;;;;18.92;3.80;;;7.30;99.90;;;;;;4995193;28;20102;-70
2022/10/17 02:12:21;;;;;;;20.08;4.30;;;7.40;99.90;;;;;;4996127;28;20109;-70
2022/10/17 02:15:07;;;;;;;23.33;4.40;;;7.40;99.90;;;;;;4992476;23;20449;-71
2022/10/17 02:17:48;;;;;;;15.55;4.18;;;7.40;99.90;;;;;;4997239;28;20038;-70
2022/10/17 02:20:27;;;;;;;14.52;3.97;;;7.40;99.90;;;;;;5015901;28;20022;-70
2022/10/17 02:23:16;;;;;;;15.05;3.95;;;7.40;99.90;;;;;;5007796;28;20057;-71
2022/10/17 02:25:52;;;;;;;21.60;4.10;;;7.40;99.90;;;;;;5005299;28;20034;-70
2022/10/17 02:28:20;;;;;;;14.30;4.18;;;7.40;99.90;;;;;;5003923;28;20026;-71
2022/10/17 02:30:48;;;;;;;28.17;4.57;;;7.40;99.90;;;;;;5013855;28;20034;-70
2022/10/17 02:33:22;;;;;;;21.38;5.03;;;7.40;99.90;;;;;;5006069;28;20026;-70
2022/10/17 02:35:52;;;;;;;25.25;5.00;;;7.40;99.90;;;;;;5000777;28;20037;-70
2022/10/17 02:38:20;;;;;;;18.48;4.35;;;7.40;99.90;;;;;;5013340;28;20041;-70
2022/10/17 02:40:47;;;;;;;13.27;4.65;;;7.40;99.90;;;;;;5005983;28;20026;-71
2022/10/17 02:43:13;;;;;;;22.52;5.25;;;7.40;99.90;;;;;;5003137;28;20505;-71
2022/10/17 02:45:39;;;;;;;18.33;4.43;;;7.50;99.90;;;;;;5015154;28;20040;-71
2022/10/17 02:48:11;;;;;;;16.42;4.68;;;7.50;99.90;;;;;;5015219;28;20057;-70
2022/10/17 02:51:11;;;;;;;14.82;4.32;;;7.50;99.90;;;;;;5001162;28;20058;-70
2022/10/17 02:53:56;;;;;;;14.68;4.13;;;7.60;99.90;;;;;;5005749;28;20037;-70
2022/10/17 02:56:24;;;;;;;19.25;4.90;;;7.60;99.90;;;;;;4996233;28;20022;-70
2022/10/17 02:58:55;;;;;;;17.45;4.97;;;7.60;99.90;;;;;;5014573;28;20018;-70
2022/10/17 03:01:20;;;;;;;14.80;5.13;;;7.70;99.90;;;;;;5015507;28;20077;-71
2022/10/17 03:03:46;;;;;;;20.23;4.80;;;7.70;99.90;;;;;;5012815;28;20396;-71
2022/10/17 03:06:11;;;;;;;18.88;4.82;;;7.70;99.90;;;;;;5002402;28;20034;-70
2022/10/17 03:08:37;;;;;;;23.33;4.75;;;7.80;99.90;;;;;;5013517;28;20044;-70
2022/10/17 03:11:03;;;;;;;12.18;3.95;;;7.80;99.90;;;;;;5008100;28;20032;-70
2022/10/17 03:13:29;;;;;;;17.02;4.80;;;7.90;99.90;;;;;;5009031;28;20122;-70
2022/10/17 03:15:56;;;;;;;22.63;4.32;;;7.90;99.90;;;;;;4995706;28;20133;-70
2022/10/17 03:18:22;;;;;;;19.10;4.78;;;7.80;99.90;;;;;;4996104;28;20082;-70
2022/10/17 03:20:47;;;;;;;17.58;5.10;;;7.80;99.90;;;;;;5005308;28;20496;-70
2022/10/17 03:23:13;;;;;;;15.00;4.25;;;7.80;99.90;;;;;;5011504;28;20030;-70
2022/10/17 03:25:38;;;;;;;19.80;4.30;;;7.90;99.90;;;;;;5010682;28;20044;-70
2022/10/17 03:28:04;;;;;;;13.60;3.85;;;7.90;99.90;;;;;;4998549;28;20053;-70
2022/10/17 03:30:30;;;;;;;20.17;4.20;;;8.00;99.90;;;;;;5008732;28;20026;-70
2022/10/17 03:32:59;;;;;;;14.82;3.70;;;8.00;99.90;;;;;;5012405;28;20037;-70
2022/10/17 03:35:26;;;;;;;25.73;4.15;;;8.10;99.90;;;;;;5014975;28;20465;-70
2022/10/17 03:37:53;;;;;;;17.60;3.90;;;8.20;99.90;;;;;;5010531;28;20029;-70
2022/10/17 03:40:19;;;;;;;19.58;3.95;;;8.20;99.90;;;;;;4995431;28;20026;-71
2022/10/17 03:42:44;;;;;;;29.80;4.82;;;8.30;99.90;;;;;;4995216;28;20073;-70
2022/10/17 03:45:10;;;;;;;24.63;3.72;;;8.40;99.90;;;;;;5036672;23;20048;-69
2022/10/17 03:47:35;;;;;;;27.52;4.90;;;8.50;99.90;;;;;;5034121;28;20017;-69
2022/10/17 03:50:01;;;;;;;24.10;5.07;;;8.60;99.90;;;;;;5034314;28;20092;-69
2022/10/17 03:52:26;;;;;;;29.23;4.60;;;8.70;99.90;;;;;;5034144;28;20040;-69
2022/10/17 03:54:52;;;;;;;32.40;5.22;;;8.90;99.90;;;;;;5034348;28;20047;-69
2022/10/17 03:57:18;;;;;;;26.45;4.43;;;9.00;99.90;;;;;;5034253;28;20121;-69
2022/10/17 03:59:43;;;;;;;22.38;3.78;;;9.10;99.90;;;;;;5033560;28;20022;-69
2022/10/17 04:02:09;;;;;;;23.77;4.47;;;9.10;99.90;;;;;;5034135;28;20052;-69
2022/10/17 04:04:35;;;;;;;26.55;3.60;;;9.20;99.90;;;;;;5034015;28;20034;-69
2022/10/17 04:07:00;;;;;;;18.60;3.28;;;9.20;99.90;;;;;;5033854;28;20064;-69
2022/10/17 04:09:26;;;;;;;19.88;4.00;;;9.20;99.90;;;;;;5034086;28;20534;-69
2022/10/17 04:11:51;;;;;;;16.92;3.47;;;9.20;99.90;;;;;;5033597;28;20540;-69
2022/10/17 04:14:17;;;;;;;17.17;4.13;;;9.30;99.90;;;;;;5033685;28;20393;-69
2022/10/17 04:16:43;;;;;;;20.65;4.05;;;9.30;99.90;;;;;;5033747;28;20026;-69
2022/10/17 04:19:11;;;;;;;29.05;4.20;;;9.40;99.90;;;;;;5033945;28;20033;-70
2022/10/17 04:21:37;;;;;;;23.48;4.70;;;9.40;99.90;;;;;;5033513;28;20044;-69
2022/10/17 04:24:03;;;;;;;31.75;4.40;;;9.50;99.90;;;;;;5033717;28;20489;-69
2022/10/17 04:26:29;;;;;;;21.27;5.82;;;9.60;99.90;;;;;;5032959;28;20030;-69
2022/10/17 04:28:54;;;;;;;27.48;5.13;;;9.60;99.90;;;;;;5033577;28;20035;-69
2022/10/17 04:31:20;;;;;;;27.67;4.10;;;9.70;99.90;;;;;;5028752;28;20024;-69
2022/10/17 04:33:48;;;;;;;23.85;4.88;;;9.70;99.90;;;;;;5023835;28;20026;-69
2022/10/17 04:36:16;;;;;;;22.48;4.80;;;9.70;99.90;;;;;;5018460;28;20110;-69
2022/10/17 04:38:42;;;;;;;42.30;5.82;;;9.80;99.90;;;;;;5013704;28;20030;-69
2022/10/17 04:41:11;;;;;;;17.73;4.07;;;9.90;99.90;;;;;;5033393;28;20100;-69
2022/10/17 04:43:38;;;;;;;22.20;3.67;;;9.90;99.90;;;;;;5033685;28;20026;-69
2022/10/17 04:46:10;;;;;;;31.75;5.13;;;10.00;99.90;;;;;;5028639;28;20045;-69
2022/10/17 04:48:36;;;;;;;26.05;5.90;;;10.00;99.90;;;;;;5013903;28;20026;-69
2022/10/17 04:51:09;;;;;;;18.35;4.20;;;10.10;99.90;;;;;;5021759;28;20025;-69
2022/10/17 04:53:36;;;;;;;14.35;4.25;;;10.10;99.90;;;;;;5034102;28;20435;-69
2022/10/17 04:56:08;;;;;;;22.63;4.63;;;10.10;99.90;;;;;;5029974;28;20042;-69
2022/10/17 04:58:34;;;;;;;23.73;4.28;;;10.20;99.90;;;;;;5013806;28;20029;-69
2022/10/17 05:01:04;;;;;;;28.98;5.07;;;10.20;99.90;;;;;;5016446;28;20385;-69
2022/10/17 05:03:29;;;;;;;18.80;4.18;;;10.20;99.90;;;;;;5019336;28;20497;-69
2022/10/17 05:05:55;;;;;;;30.80;3.80;;;10.30;99.90;;;;;;5023488;28;20041;-69
2022/10/17 05:08:20;;;;;;;19.40;4.45;;;10.30;99.90;;;;;;5018545;28;20033;-69
2022/10/17 05:10:46;;;;;;;19.08;3.50;;;10.30;99.90;;;;;;5022263;28;20025;-69
2022/10/17 05:13:12;;;;;;;23.17;4.20;;;10.30;99.90;;;;;;5022717;28;20053;-69
2022/10/17 05:15:38;;;;;;;21.30;4.03;;;10.30;99.90;;;;;;5033066;28;20048;-69
2022/10/17 05:18:04;;;;;;;19.05;3.58;;;10.30;99.90;;;;;;5033100;28;20488;-69
2022/10/17 05:20:30;;;;;;;12.15;3.63;;;10.30;99.90;;;;;;5016990;28;20461;-69
2022/10/17 05:22:58;;;;;;;28.98;4.40;;;10.30;99.90;;;;;;5026906;28;20029;-69
2022/10/17 05:25:24;;;;;;;18.17;3.60;;;10.20;99.90;;;;;;5034168;28;20025;-69
2022/10/17 05:27:49;;;;;;;26.63;4.57;;;10.20;99.90;;;;;;5033598;28;20070;-69
2022/10/17 05:30:15;;;;;;;21.85;4.63;;;10.20;99.90;;;;;;5037212;28;20040;-69
2022/10/17 05:32:40;;;;;;;8.80;4.00;;;10.10;99.90;;;;;;5023603;28;20029;-69
2022/10/17 05:35:06;;;;;;;18.67;4.70;;;10.10;99.90;;;;;;5036604;28;20028;-69
2022/10/17 05:37:32;;;;;;;18.20;3.60;;;10.10;99.90;;;;;;5036639;28;20021;-69
2022/10/17 05:39:57;;;;;;;24.45;3.78;;;10.10;99.90;;;;;;5036774;28;20021;-69
2022/10/17 05:42:23;;;;;;;20.45;5.35;;;10.20;99.90;;;;;;5036684;28;20052;-69
2022/10/17 05:44:49;;;;;;;18.35;4.40;;;10.20;99.90;;;;;;5036366;28;20453;-69
2022/10/17 05:47:14;;;;;;;21.23;4.60;;;10.20;99.90;;;;;;5036948;28;20108;-69
2022/10/17 05:49:40;;;;;;;23.25;4.65;;;10.30;99.90;;;;;;5036037;28;20116;-69
2022/10/17 05:52:05;;;;;;;28.95;4.57;;;10.30;99.90;;;;;;5036720;28;20031;-69
2022/10/17 05:54:31;;;;;;;23.98;4.32;;;10.30;99.90;;;;;;5036518;28;20484;-69
2022/10/17 05:56:57;;;;;;;27.55;4.32;;;10.30;99.90;;;;;;5022295;28;20393;-69
2022/10/17 05:59:24;;;;;;;12.38;4.10;;;10.30;99.90;;;;;;5027307;28;20037;-69
2022/10/17 06:01:50;;;;;;;30.98;4.35;;;10.30;99.90;;;;;;5018836;28;20109;-69
2022/10/17 06:04:16;;;;;;;28.35;3.92;;;10.40;99.90;;;;;;5015220;28;20076;-69
2022/10/17 06:06:41;;;;;;;18.05;3.53;;;10.40;99.90;;;;;;5034452;28;20024;-69
2022/10/17 06:09:07;;;;;;;25.35;4.32;;;10.40;99.90;;;;;;5036154;28;20060;-69
2022/10/17 06:11:34;;;;;;;34.17;5.00;;;10.30;99.90;;;;;;5035759;28;20026;-69
2022/10/17 06:13:59;;;;;;;18.50;4.05;;;10.30;99.90;;;;;;5036040;28;20117;-70
2022/10/17 06:16:25;;;;;;;27.45;4.45;;;10.30;99.90;;;;;;5036265;28;20512;-69
2022/10/17 06:18:50;;;;;;;23.02;3.92;;;10.30;99.90;;;;;;5036334;28;20028;-70
2022/10/17 06:21:20;;;;;;;19.95;3.97;;;10.30;99.90;;;;;;5035847;28;20041;-69
2022/10/17 06:23:46;;;;;;;20.90;4.88;;;10.40;99.90;;;;;;5035492;28;20057;-69
2022/10/17 06:26:12;;;;;;;19.45;3.97;;;10.40;99.90;;;;;;5035910;28;20037;-69
2022/10/17 06:28:38;;;;;;;20.55;4.97;;;10.50;99.90;;;;;;5035919;28;20048;-69
2022/10/17 06:31:08;;;;;;;16.52;4.68;;;10.50;99.90;;;;;;5036507;28;20032;-69
2022/10/17 06:33:34;;;;;;;28.92;4.75;;;10.60;99.90;;;;;;5036015;28;20116;-70
2022/10/17 06:36:00;;;;;;;23.88;4.40;;;10.60;99.90;;;;;;5035188;28;20025;-69
2022/10/17 06:38:26;;;;;;;21.60;4.60;;;10.70;99.90;;;;;;5034082;28;20075;-69
2022/10/17 06:40:53;;;;;;;18.63;5.18;;;10.80;99.90;;;;;;5035692;28;20065;-69
2022/10/17 06:43:19;;;;;;;16.85;5.35;;;10.90;99.90;;;;;;5035438;28;20056;-69
2022/10/17 06:45:47;;;;;;;13.20;3.78;;;11.00;99.90;;;;;;5029922;28;20563;-69
2022/10/17 06:48:13;;;;;;;11.38;4.10;;;11.20;99.90;;;;;;5015732;28;20034;-69
2022/10/17 06:50:39;;;;;;;20.00;5.65;;;11.40;99.90;;;;;;5031753;28;20108;-69
2022/10/17 06:53:04;;;;;;;10.70;4.18;;;11.50;99.90;;;;;;5035534;28;20091;-69
2022/10/17 06:55:31;;;;;;;14.30;4.22;;;11.60;99.90;;;;;;5035363;28;20017;-69
2022/10/17 06:57:57;;;;;;;11.73;4.22;;;11.80;99.90;;;;;;5034770;28;20030;-70
2022/10/17 07:00:25;;;;;;;13.20;4.10;;;11.80;99.90;;;;;;5034941;28;20025;-69
2022/10/17 07:02:51;;;;;;;13.68;4.07;;;11.90;99.90;;;;;;5035410;28;20148;-69
2022/10/17 07:05:18;;;;;;;14.70;4.10;;;12.00;99.90;;;;;;5035341;28;20072;-69
2022/10/17 07:07:43;;;;;;;7.90;3.50;;;12.00;99.90;;;;;;5034420;28;20032;-69
2022/10/17 07:10:09;;;;;;;12.27;3.45;;;12.10;99.90;;;;;;5035325;28;20037;-69
2022/10/17 07:12:35;;;;;;;20.52;3.90;;;12.20;99.90;;;;;;5034988;28;20029;-69
2022/10/17 07:15:02;;;;;;;6.53;3.10;;;12.20;99.90;;;;;;5034913;28;20160;-70
2022/10/17 07:17:28;;;;;;;11.13;3.40;;;12.30;99.90;;;;;;5030186;28;20029;-70
2022/10/17 07:19:54;;;;;;;12.57;3.20;;;12.30;99.90;;;;;;5013315;28;20029;-69
2022/10/17 07:22:19;;;;;;;14.07;3.17;;;12.40;99.90;;;;;;5023487;28;20083;-69
2022/10/17 07:24:45;;;;;;;12.27;3.15;;;12.40;99.90;;;;;;5034589;28;20025;-69
2022/10/17 07:27:12;;;;;;;14.98;3.38;;;12.40;99.90;;;;;;5034403;28;20025;-69
2022/10/17 07:29:38;;;;;;;11.73;3.15;;;12.50;99.90;;;;;;5033895;28;20036;-69
2022/10/17 07:32:07;;;;;;;5.30;3.47;;;12.60;99.90;;;;;;5034597;28;20108;-69
2022/10/17 07:34:33;;;;;;;6.90;3.30;;;12.60;99.90;;;;;;5034518;28;20018;-69
2022/10/17 07:36:59;;;;;;;12.75;4.03;;;12.70;99.90;;;;;;5034467;28;20056;-69
2022/10/17 07:39:24;;;;;;;17.00;3.17;;;12.70;99.90;;;;;;5034389;28;20481;-69
2022/10/17 07:41:50;;;;;;;8.32;3.25;;;12.80;99.90;;;;;;5033998;28;20025;-70
2022/10/17 07:44:15;;;;;;;9.18;3.33;;;12.90;99.90;;;;;;5034444;28;20060;-69
2022/10/17 07:46:41;;;;;;;12.13;2.80;;;12.90;99.90;;;;;;5034260;28;20033;-69
2022/10/17 07:49:07;;;;;;;13.23;3.20;;;13.00;99.90;;;;;;5031805;28;20481;-69
2022/10/17 07:51:32;;;;;;;9.23;2.65;;;13.00;99.90;;;;;;5034271;28;20400;-69
2022/10/17 07:53:58;;;;;;;7.68;3.38;;;13.00;99.90;;;;;;5033906;28;20087;-69
2022/10/17 07:56:24;;;;;;;9.82;2.90;;;13.00;99.90;;;;;;5016245;28;20080;-69
2022/10/17 07:58:51;;;;;;;9.82;2.75;;;13.00;99.90;;;;;;5018037;28;20068;-69
2022/10/17 08:01:16;;;;;;;10.82;2.83;;;13.00;99.90;;;;;;5014713;28;20022;-69
2022/10/17 08:03:49;;;;;;;9.68;3.42;;;13.00;99.90;;;;;;5014285;28;20032;-69
2022/10/17 08:06:14;;;;;;;10.47;2.87;;;13.00;99.90;;;;;;5014249;28;20555;-69
2022/10/17 08:08:40;;;;;;;8.00;3.10;;;13.10;99.90;;;;;;5013596;28;20021;-69
2022/10/17 08:11:08;;;;;;;16.60;3.13;;;13.10;99.90;;;;;;5016707;28;20026;-69
2022/10/17 08:13:34;;;;;;;6.10;2.75;;;13.20;99.90;;;;;;5013999;28;20540;-69
2022/10/17 08:16:08;;;;;;;6.38;2.75;;;13.30;99.90;;;;;;5029838;28;20057;-69
2022/10/17 08:18:35;;;;;;;7.63;2.55;;;13.30;99.90;;;;;;5033352;28;20023;-69
2022/10/17 08:21:05;;;;;;;8.52;3.55;;;13.40;99.90;;;;;;5025104;28;20068;-69
2022/10/17 08:23:31;;;;;;;11.30;3.25;;;13.40;99.90;;;;;;5012520;28;20022;-69
2022/10/17 08:26:01;;;;;;;8.95;3.10;;;13.50;99.90;;;;;;5013883;28;20430;-69
2022/10/17 08:28:28;;;;;;;5.75;2.60;;;13.50;99.90;;;;;;5013876;28;20022;-69
2022/10/17 08:31:04;;;;;;;5.60;2.42;;;13.60;99.90;;;;;;5013535;28;20022;-69
2022/10/17 08:33:29;;;;;;;11.18;2.95;;;13.60;99.90;;;;;;5016431;28;20034;-69
2022/10/17 08:35:57;;;;;;;7.38;3.10;;;13.70;99.90;;;;;;5033436;28;20087;-69
2022/10/17 08:38:23;;;;;;;14.30;3.05;;;13.70;99.90;;;;;;5032257;28;20029;-69
2022/10/17 08:40:48;;;;;;;8.35;3.17;;;13.80;99.90;;;;;;5034105;28;20026;-69
2022/10/17 08:43:44;;;;;;;8.05;3.88;;;14.00;99.90;;;;;;5033454;28;20049;-69
2022/10/17 08:46:10;;;;;;;13.32;3.80;;;14.10;99.90;;;;;;5032686;28;20030;-69
2022/10/17 08:48:41;;;;;;;13.13;3.42;;;14.10;99.90;;;;;;5033406;28;20044;-69
2022/10/17 08:51:28;;;;;;;14.18;3.47;;;14.10;99.90;;;;;;5033265;28;20104;-69
2022/10/17 08:54:21;;;;;;;10.43;3.08;;;14.20;99.90;;;;;;5033855;28;20036;-69
2022/10/17 08:56:52;;;;;;;5.85;3.40;;;14.20;99.90;;;;;;5029855;28;20149;-69
2022/10/17 08:59:24;;;;;;;13.32;3.50;;;14.10;99.90;;;;;;5032896;28;20029;-69
2022/10/17 09:02:03;;;;;;;9.43;3.60;;;14.20;99.90;;;;;;5027682;28;20067;-69
2022/10/17 09:04:51;;;;;;;8.90;3.78;;;14.30;99.90;;;;;;5013789;28;20036;-69
2022/10/17 09:07:42;;;;;;;10.55;3.75;;;14.40;99.90;;;;;;5017721;28;20017;-69
2022/10/17 09:10:25;;;;;;;11.68;3.70;;;14.40;99.90;;;;;;5033202;28;20386;-69
2022/10/17 09:13:14;;;;;;;7.93;3.30;;;14.40;99.90;;;;;;5029561;28;20439;-69
2022/10/17 09:15:48;;;;;;;7.38;2.92;;;14.50;99.90;;;;;;5032233;28;20037;-69
2022/10/17 09:18:39;;;;;;;11.68;3.25;;;14.60;99.90;;;;;;5027591;28;20029;-69
2022/10/17 09:21:22;;;;;;;10.93;3.60;;;14.70;99.90;;;;;;5012962;28;20033;-69
2022/10/17 09:23:58;;;;;;;7.05;3.55;;;14.90;99.90;;;;;;5015546;28;20043;-69
2022/10/17 09:26:25;;;;;;;10.93;3.58;;;15.00;99.90;;;;;;5013336;28;20026;-69
2022/10/17 09:28:54;;;;;;;4.72;3.17;;;15.20;99.90;;;;;;5024412;28;20060;-69
2022/10/17 09:31:37;;;;;;;9.60;3.75;;;15.50;99.90;;;;;;5032881;28;20025;-69
2022/10/17 09:34:02;;;;;;;6.70;3.50;;;15.70;99.90;;;;;;5029990;28;20025;-69
2022/10/17 09:36:33;;;;;;;4.30;3.25;;;15.90;99.90;;;;;;5029758;28;20120;-69
2022/10/17 09:39:02;;;;;;;5.35;3.28;;;16.20;99.90;;;;;;5033228;28;20495;-69
2022/10/17 09:41:43;;;;;;;10.63;3.00;;;16.20;99.90;;;;;;5017948;28;20030;-69
2022/10/17 09:44:23;;;;;;;9.13;3.85;;;16.20;99.90;;;;;;5015302;28;20034;-69
2022/10/17 09:47:19;;;;;;;18.33;3.72;;;16.30;99.90;;;;;;5084212;23;20500;-71
2022/10/17 09:49:47;;;;;;;4.80;3.08;;;16.30;99.90;;;;;;5013733;28;20060;-70
2022/10/17 09:52:28;;;;;;;5.78;3.30;;;16.50;99.90;;;;;;5013045;28;20029;-70
2022/10/17 09:55:14;;;;;;;8.30;3.42;;;16.70;99.90;;;;;;5013399;28;20026;-69
2022/10/17 09:57:56;;;;;;;17.38;3.63;;;16.90;99.90;;;;;;5013557;28;20024;-70
2022/10/17 10:00:44;;;;;;;10.30;3.95;;;17.10;99.90;;;;;;5013366;28;20036;-70
2022/10/17 10:03:22;;;;;;;16.85;4.47;;;17.20;99.90;;;;;;5012584;28;20037;-70
2022/10/17 10:06:11;;;;;;;8.80;4.30;;;17.20;99.90;;;;;;5013255;28;20132;-70
2022/10/17 10:08:51;;;;;;;10.55;4.10;;;17.20;99.90;;;;;;5013139;28;20026;-70
2022/10/17 10:11:17;;;;;;;9.95;4.70;;;17.30;99.90;;;;;;5014375;28;20022;-70
2022/10/17 10:13:46;;;;;;;9.50;4.50;;;17.20;99.90;;;;;;5016197;28;20038;-71
2022/10/17 10:16:18;;;;;;;12.45;5.18;;;17.20;99.90;;;;;;5016629;28;20634;-70
2022/10/17 10:18:45;;;;;;;11.13;4.22;;;17.30;99.90;;;;;;5014155;28;20076;-70
2022/10/17 10:21:16;;;;;;;14.27;4.32;;;17.40;99.90;;;;;;5015142;28;20018;-70
2022/10/17 10:23:43;;;;;;;6.28;4.28;;;17.60;99.90;;;;;;5015502;28;20485;-70
2022/10/17 10:26:21;;;;;;;6.70;4.05;;;17.80;99.90;;;;;;5017218;28;20365;-70
2022/10/17 10:28:57;;;;;;;9.02;4.40;;;17.90;99.90;;;;;;5016383;28;20029;-70
2022/10/17 10:31:34;;;;;;;9.68;4.80;;;17.90;99.90;;;;;;5016481;28;20054;-70
2022/10/17 10:34:09;;;;;;;21.55;5.32;;;18.00;99.90;;;;;;5016199;28;20026;-70
2022/10/17 10:37:13;;;;;;;16.33;5.07;;;18.00;99.90;;;;;;5016001;28;20029;-70
2022/10/17 10:39:53;;;;;;;8.53;5.20;;;18.10;99.90;;;;;;5010223;28;20037;-70
2022/10/17 10:42:24;;;;;;;10.43;4.97;;;18.20;99.90;;;;;;5016235;28;20311;-70
2022/10/17 10:44:51;;;;;;;11.07;5.25;;;18.40;99.90;;;;;;5015979;28;20026;-70
2022/10/17 10:47:23;;;;;;;10.10;4.85;;;18.60;99.90;;;;;;5016173;28;20025;-70
2022/10/17 10:49:51;;;;;;;13.18;5.72;;;18.80;99.90;;;;;;5008545;28;20018;-70
2022/10/17 10:52:37;;;;;;;13.38;4.70;;;18.80;99.90;;;;;;4996524;28;20085;-70
2022/10/17 10:55:26;;;;;;;9.50;5.95;;;18.60;99.90;;;;;;5001717;28;20037;-70
2022/10/17 10:57:58;;;;;;;12.80;5.75;;;18.50;99.90;;;;;;5015369;28;20036;-70
2022/10/17 11:00:27;;;;;;;10.05;6.13;;;18.30;99.90;;;;;;5013917;28;20022;-70
2022/10/17 11:03:02;;;;;;;15.13;6.32;;;18.20;99.90;;;;;;5014183;28;20038;-70
2022/10/17 11:05:40;;;;;;;10.40;6.95;;;18.00;99.90;;;;;;5015776;28;20029;-70
2022/10/17 11:08:19;;;;;;;24.65;16.95;;;17.90;99.90;;;;;;5013843;28;20025;-69
2022/10/17 11:11:17;;;;;;;13.52;7.72;;;17.80;99.90;;;;;;5015753;28;20110;-70
2022/10/17 11:14:20;;;;;;;21.73;7.97;;;17.80;99.90;;;;;;5013418;28;20034;-70
2022/10/17 11:17:08;;;;;;;16.48;7.75;;;17.80;99.90;;;;;;5015422;28;20052;-70
2022/10/17 11:20:03;;;;;;;10.68;6.95;;;17.80;99.90;;;;;;5006436;28;20490;-70
2022/10/17 11:22:37;;;;;;;14.55;7.38;;;17.80;99.90;;;;;;5011443;28;20054;-70
2022/10/17 11:25:26;;;;;;;18.30;7.53;;;17.80;99.90;;;;;;4995812;28;20045;-70
2022/10/17 11:27:52;;;;;;;12.70;7.63;;;17.70;99.90;;;;;;4997522;28;20037;-69
2022/10/17 11:30:18;;;;;;;21.67;8.98;;;17.60;99.90;;;;;;5014047;28;20433;-70
2022/10/17 11:32:56;;;;;;;12.07;8.52;;;17.50;99.90;;;;;;5015737;28;20405;-70
2022/10/17 11:35:42;;;;;;;16.45;8.55;;;17.50;99.90;;;;;;5013265;28;20033;-70
2022/10/17 11:38:23;;;;;;;20.10;10.32;;;17.50;99.90;;;;;;5015491;28;20022;-70
2022/10/17 11:40:50;;;;;;;16.05;8.60;;;17.50;99.90;;;;;;5010257;28;20032;-70
2022/10/17 11:43:26;;;;;;;10.68;8.45;;;17.50;99.90;;;;;;5015085;28;20022;-70
2022/10/17 11:45:58;;;;;;;16.67;9.55;;;17.40;99.90;;;;;;5012701;28;20053;-70
2022/10/17 11:48:44;;;;;;;16.35;9.75;;;17.40;99.90;;;;;;5014633;28;20030;-70
2022/10/17 11:51:12;;;;;;;22.52;11.10;;;17.40;99.90;;;;;;5003961;28;20084;-70
2022/10/17 11:54:02;;;;;;;23.67;10.75;;;17.40;99.90;;;;;;5010360;28;20495;-70
2022/10/17 11:56:47;;;;;;;16.60;11.05;;;17.40;99.90;;;;;;5003540;28;20374;-70
2022/10/17 11:59:13;;;;;;;20.35;10.18;;;17.30;99.90;;;;;;5014909;28;20018;-70
2022/10/17 12:01:44;;;;;;;15.40;10.57;;;17.30;99.90;;;;;;5011307;28;20036;-70
2022/10/17 12:04:57;;;;;;;22.58;11.60;;;17.10;99.90;;;;;;5015008;28;20030;-70
2022/10/17 12:07:45;;;;;;;19.05;11.40;;;17.10;99.90;;;;;;4953931;29;20039;-70
2022/10/17 12:10:43;;;;;;;15.95;11.93;;;17.00;99.90;;;;;;4954281;29;20550;-70
2022/10/17 12:13:27;;;;;;;21.33;13.07;;;16.90;99.90;;;;;;4990706;28;20042;-70
2022/10/17 12:16:16;;;;;;;29.15;14.90;;;16.80;99.90;;;;;;4994519;28;20485;-70
2022/10/17 12:18:42;;;;;;;32.40;15.07;;;16.80;99.90;;;;;;5004774;28;20042;-70
2022/10/17 12:21:08;;;;;;;29.13;16.15;;;16.70;99.90;;;;;;5014438;28;20029;-70
2022/10/17 12:23:35;;;;;;;27.42;16.45;;;16.60;99.90;;;;;;5010036;28;20393;-70
2022/10/17 12:26:03;;;;;;;22.60;16.00;;;16.50;99.90;;;;;;5013915;28;20030;-70
2022/10/17 12:28:43;;;;;;;28.95;15.57;;;16.50;99.90;;;;;;5007634;28;20029;-70
2022/10/17 12:31:24;;;;;;;37.00;22.42;;;16.50;99.90;;;;;;4994718;28;20026;-70
2022/10/17 12:33:55;;;;;;;26.42;16.75;;;16.40;99.90;;;;;;4996512;28;20026;-70
2022/10/17 12:36:21;;;;;;;38.30;18.05;;;16.40;99.90;;;;;;4993959;28;20474;-70
2022/10/17 12:39:14;;;;;;;25.55;17.58;;;16.30;99.90;;;;;;4994765;28;20026;-70
2022/10/17 12:41:39;;;;;;;42.75;19.30;;;16.30;99.90;;;;;;4994499;28;20098;-70
2022/10/17 12:44:13;;;;;;;43.70;20.00;;;16.20;99.90;;;;;;4994203;28;20022;-68
2022/10/17 12:46:45;;;;;;;40.03;19.15;;;16.10;99.90;;;;;;4996315;28;20045;-69
2022/10/17 12:49:41;;;;;;;41.35;23.65;;;16.10;99.90;;;;;;4993983;28;20030;-69
2022/10/17 12:52:28;;;;;;;27.85;18.77;;;16.10;99.90;;;;;;5013117;28;20025;-69
2022/10/17 12:55:18;;;;;;;37.00;20.00;;;16.00;99.90;;;;;;5012454;28;20037;-68
2022/10/17 12:57:54;;;;;;;43.72;21.88;;;16.00;99.90;;;;;;4993082;28;20019;-69
2022/10/17 13:00:33;;;;;;;32.92;19.52;;;16.00;99.90;;;;;;4994192;28;20038;-69
2022/10/17 13:03:11;;;;;;;35.97;22.00;;;15.90;99.90;;;;;;4992863;28;20084;-69
2022/10/17 13:05:40;;;;;;;38.83;18.60;;;15.90;99.90;;;;;;4993976;28;20030;-69
2022/10/17 13:08:13;;;;;;;37.17;20.35;;;15.90;99.90;;;;;;5008790;28;20164;-68